createdAt,value
2023-01-11T00:00:56.950Z,950.49
2023-01-11T00:01:56.972Z,950.43
2023-01-11T00:02:56.920Z,950.46
2023-01-11T00:03:56.895Z,950.45
2023-01-11T00:04:56.932Z,950.36
2023-01-11T00:05:56.864Z,950.34
2023-01-11T00:06:56.895Z,950.33
2023-01-11T00:07:56.855Z,950.34
2023-01-11T00:08:56.843Z,950.35
2023-01-11T00:09:56.819Z,950.33
2023-01-11T00:10:56.826Z,950.34
2023-01-11T00:11:56.795Z,950.36
2023-01-11T00:12:56.788Z,950.34
2023-01-11T00:13:56.814Z,950.28
2023-01-11T00:14:56.759Z,950.26
2023-01-11T00:15:56.841Z,950.25
2023-01-11T00:16:56.735Z,950.23
2023-01-11T00:17:56.753Z,950.13
2023-01-11T00:18:56.711Z,950.15
2023-01-11T00:19:56.728Z,950.11
2023-01-11T00:20:56.711Z,950.08
2023-01-11T00:21:56.695Z,950.05
2023-01-11T00:22:56.686Z,950.05
2023-01-11T00:23:56.669Z,950.01
2023-01-11T00:24:56.664Z,950.01
2023-01-11T00:25:56.660Z,949.97
2023-01-11T00:26:56.622Z,950.00
2023-01-11T00:27:56.634Z,949.98
2023-01-11T00:28:56.616Z,949.94
2023-01-11T00:29:56.623Z,949.94
2023-01-11T00:30:56.613Z,949.94
2023-01-11T00:31:56.586Z,949.92
2023-01-11T00:32:56.583Z,949.90
2023-01-11T00:33:56.547Z,949.88
2023-01-11T00:34:56.529Z,949.88
2023-01-11T00:35:56.530Z,949.86
2023-01-11T00:36:56.541Z,949.82
2023-01-11T00:37:56.509Z,949.77
2023-01-11T00:38:56.500Z,949.80
2023-01-11T00:39:56.479Z,949.74
2023-01-11T00:40:56.509Z,949.75
2023-01-11T00:41:56.480Z,949.71
2023-01-11T00:42:56.446Z,949.69
2023-01-11T00:43:56.440Z,949.73
2023-01-11T00:44:56.428Z,949.69
2023-01-11T00:45:56.474Z,949.69
2023-01-11T00:46:56.433Z,949.74
2023-01-11T00:47:56.397Z,949.68
2023-01-11T00:48:56.411Z,949.69
2023-01-11T00:49:56.369Z,949.70
2023-01-11T00:50:56.362Z,949.69
2023-01-11T00:51:56.348Z,949.71
2023-01-11T00:52:56.357Z,949.68
2023-01-11T00:53:56.325Z,949.68
2023-01-11T00:54:56.332Z,949.64
2023-01-11T00:55:56.299Z,949.67
2023-01-11T00:56:56.310Z,949.64
2023-01-11T00:57:56.290Z,949.71
2023-01-11T00:58:56.283Z,949.64
2023-01-11T00:59:56.257Z,949.58
2023-01-11T01:00:56.268Z,949.61
2023-01-11T01:01:56.251Z,949.59
2023-01-11T01:02:56.336Z,949.59
2023-01-11T01:03:56.205Z,949.50
2023-01-11T01:04:57.625Z,949.51
2023-01-11T01:05:57.016Z,949.46
2023-01-11T01:06:56.238Z,949.46
2023-01-11T01:07:56.186Z,949.39
2023-01-11T01:08:56.154Z,949.39
2023-01-11T01:09:56.160Z,949.36
2023-01-11T01:10:56.151Z,949.36
2023-01-11T01:11:56.122Z,949.35
2023-01-11T01:12:56.152Z,949.39
2023-01-11T01:13:56.099Z,949.28
2023-01-11T01:14:56.078Z,949.39
2023-01-11T01:15:56.109Z,949.25
2023-01-11T01:16:56.078Z,949.24
2023-01-11T01:17:56.173Z,949.30
2023-01-11T01:18:56.061Z,949.21
2023-01-11T01:19:56.022Z,949.27
2023-01-11T01:20:56.075Z,949.31
2023-01-11T01:21:56.021Z,949.22
2023-01-11T01:22:56.013Z,949.31
2023-01-11T01:23:55.979Z,949.32
2023-01-11T01:24:55.973Z,949.31
2023-01-11T01:25:55.979Z,949.33
2023-01-11T01:26:55.946Z,949.30
2023-01-11T01:27:55.941Z,949.30
2023-01-11T01:28:55.960Z,949.35
2023-01-11T01:29:55.915Z,949.36
2023-01-11T01:30:55.944Z,949.35
2023-01-11T01:31:55.891Z,949.39
2023-01-11T01:32:55.878Z,949.49
2023-01-11T01:33:55.870Z,949.38
2023-01-11T01:34:55.890Z,949.36
2023-01-11T01:35:55.851Z,949.40
2023-01-11T01:36:55.858Z,949.40
2023-01-11T01:37:55.819Z,949.47
2023-01-11T01:38:55.819Z,949.43
2023-01-11T01:39:55.835Z,949.40
2023-01-11T01:40:55.791Z,949.38
2023-01-11T01:41:55.773Z,949.36
2023-01-11T01:42:55.775Z,949.41
2023-01-11T01:43:55.749Z,949.32
2023-01-11T01:44:55.801Z,949.32
2023-01-11T01:45:55.792Z,949.29
2023-01-11T01:46:55.741Z,949.29
2023-01-11T01:47:55.705Z,949.28
2023-01-11T01:48:55.705Z,949.24
2023-01-11T01:49:55.693Z,949.27
2023-01-11T01:50:55.773Z,949.29
2023-01-11T01:51:55.686Z,949.26
2023-01-11T01:52:55.660Z,949.26
2023-01-11T01:53:55.651Z,949.25
2023-01-11T01:54:55.640Z,949.23
2023-01-11T01:55:55.642Z,949.24
2023-01-11T01:56:55.618Z,949.20
2023-01-11T01:57:55.596Z,949.17
2023-01-11T01:58:55.605Z,949.13
2023-01-11T01:59:55.575Z,949.12
2023-01-11T02:00:55.583Z,949.16
2023-01-11T02:01:55.630Z,949.18
2023-01-11T02:02:55.606Z,949.14
2023-01-11T02:03:55.552Z,949.12
2023-01-11T02:04:55.525Z,949.12
2023-01-11T02:05:55.526Z,949.11
2023-01-11T02:06:55.608Z,949.07
2023-01-11T02:07:55.482Z,949.00
2023-01-11T02:08:55.481Z,948.97
2023-01-11T02:09:55.458Z,948.96
2023-01-11T02:10:55.469Z,948.96
2023-01-11T02:11:55.433Z,948.94
2023-01-11T02:12:55.432Z,948.96
2023-01-11T02:13:55.441Z,948.87
2023-01-11T02:14:55.402Z,948.87
2023-01-11T02:15:55.424Z,948.85
2023-01-11T02:16:55.420Z,948.81
2023-01-11T02:17:55.387Z,948.80
2023-01-11T02:18:55.357Z,948.69
2023-01-11T02:19:55.344Z,948.68
2023-01-11T02:20:55.362Z,948.65
2023-01-11T02:21:55.321Z,948.65
2023-01-11T02:22:55.340Z,948.69
2023-01-11T02:23:55.323Z,948.64
2023-01-11T02:24:55.296Z,948.65
2023-01-11T02:25:55.299Z,948.64
2023-01-11T02:26:55.276Z,948.66
2023-01-11T02:27:55.271Z,948.68
2023-01-11T02:28:55.246Z,948.68
2023-01-11T02:29:55.247Z,948.67
2023-01-11T02:30:55.291Z,948.67
2023-01-11T02:31:55.229Z,948.65
2023-01-11T02:32:55.227Z,948.68
2023-01-11T02:33:55.214Z,948.72
2023-01-11T02:34:55.193Z,948.76
2023-01-11T02:35:55.164Z,948.66
2023-01-11T02:36:55.159Z,948.70
2023-01-11T02:37:55.157Z,948.71
2023-01-11T02:38:55.160Z,948.60
2023-01-11T02:39:55.127Z,948.61
2023-01-11T02:40:55.115Z,948.53
2023-01-11T02:41:55.600Z,948.54
2023-01-11T02:42:55.097Z,948.55
2023-01-11T02:43:55.100Z,948.52
2023-01-11T02:44:55.063Z,948.56
2023-01-11T02:45:57.235Z,948.55
2023-01-11T02:46:55.046Z,948.54
2023-01-11T02:47:55.030Z,948.59
2023-01-11T02:48:55.035Z,948.53
2023-01-11T02:49:55.006Z,948.59
2023-01-11T02:50:55.012Z,948.58
2023-01-11T02:51:54.992Z,948.53
2023-01-11T02:52:54.976Z,948.53
2023-01-11T02:53:54.981Z,948.51
2023-01-11T02:54:54.955Z,948.53
2023-01-11T02:55:54.937Z,948.55
2023-01-11T02:56:54.942Z,948.57
2023-01-11T02:57:54.912Z,948.61
2023-01-11T02:58:54.932Z,948.60
2023-01-11T02:59:54.897Z,948.55
2023-01-11T03:00:54.889Z,948.53
2023-01-11T03:01:54.937Z,948.54
2023-01-11T03:02:54.985Z,948.53
2023-01-11T03:03:54.862Z,948.50
2023-01-11T03:04:54.874Z,948.53
2023-01-11T03:05:54.819Z,948.54
2023-01-11T03:06:54.885Z,948.52
2023-01-11T03:07:54.809Z,948.54
2023-01-11T03:08:54.809Z,948.57
2023-01-11T03:09:54.780Z,948.58
2023-01-11T03:10:54.797Z,948.56
2023-01-11T03:11:54.755Z,948.59
2023-01-11T03:12:54.790Z,948.49
2023-01-11T03:13:54.730Z,948.54
2023-01-11T03:14:54.735Z,948.51
2023-01-11T03:15:54.746Z,948.56
2023-01-11T03:16:54.699Z,948.53
2023-01-11T03:17:54.682Z,948.56
2023-01-11T03:18:54.707Z,948.50
2023-01-11T03:19:54.673Z,948.52
2023-01-11T03:20:54.686Z,948.50
2023-01-11T03:21:54.652Z,948.53
2023-01-11T03:22:54.663Z,948.46
2023-01-11T03:23:54.647Z,948.44
2023-01-11T03:24:54.623Z,948.37
2023-01-11T03:25:54.621Z,948.38
2023-01-11T03:26:54.598Z,948.32
2023-01-11T03:27:54.598Z,948.24
2023-01-11T03:28:54.621Z,948.27
2023-01-11T03:29:54.556Z,948.25
2023-01-11T03:30:54.562Z,948.25
2023-01-11T03:31:54.547Z,948.14
2023-01-11T03:32:54.513Z,948.10
2023-01-11T03:33:54.500Z,948.14
2023-01-11T03:34:54.495Z,948.11
2023-01-11T03:35:54.484Z,948.06
2023-01-11T03:36:54.520Z,948.06
2023-01-11T03:37:54.558Z,948.07
2023-01-11T03:38:54.471Z,948.04
2023-01-11T03:39:54.445Z,948.08
2023-01-11T03:40:54.423Z,948.04
2023-01-11T03:41:54.433Z,948.06
2023-01-11T03:42:54.405Z,948.06
2023-01-11T03:43:54.390Z,948.10
2023-01-11T03:44:54.396Z,948.09
2023-01-11T03:45:54.374Z,948.07
2023-01-11T03:46:54.574Z,948.06
2023-01-11T03:47:54.336Z,948.11
2023-01-11T03:48:54.338Z,948.15
2023-01-11T03:49:54.344Z,948.11
2023-01-11T03:50:54.308Z,948.12
2023-01-11T03:51:54.304Z,948.09
2023-01-11T03:52:54.306Z,948.11
2023-01-11T03:53:54.281Z,948.10
2023-01-11T03:54:54.303Z,948.10
2023-01-11T03:55:54.248Z,948.03
2023-01-11T03:56:54.247Z,948.05
2023-01-11T03:57:54.226Z,948.05
2023-01-11T03:58:54.220Z,948.03
2023-01-11T03:59:54.223Z,947.99
2023-01-11T04:00:54.290Z,947.93
2023-01-11T04:01:54.191Z,947.96
2023-01-11T04:02:54.215Z,947.86
2023-01-11T04:03:54.195Z,947.87
2023-01-11T04:04:54.200Z,947.85
2023-01-11T04:05:54.160Z,947.88
2023-01-11T04:06:54.226Z,947.85
2023-01-11T04:07:54.136Z,947.81
2023-01-11T04:08:54.121Z,947.86
2023-01-11T04:09:54.095Z,947.79
2023-01-11T04:10:54.115Z,947.85
2023-01-11T04:11:54.069Z,947.83
2023-01-11T04:12:54.081Z,947.86
2023-01-11T04:13:54.058Z,947.87
2023-01-11T04:14:54.035Z,947.86
2023-01-11T04:15:54.068Z,947.86
2023-01-11T04:16:54.019Z,947.86
2023-01-11T04:17:54.010Z,947.88
2023-01-11T04:18:54.009Z,947.87
2023-01-11T04:19:54.005Z,947.96
2023-01-11T04:20:53.988Z,947.92
2023-01-11T04:21:53.955Z,947.91
2023-01-11T04:22:54.227Z,947.95
2023-01-11T04:23:53.938Z,947.98
2023-01-11T04:24:53.970Z,947.93
2023-01-11T04:25:53.937Z,947.91
2023-01-11T04:26:53.909Z,947.91
2023-01-11T04:27:53.900Z,947.87
2023-01-11T04:28:54.495Z,947.92
2023-01-11T04:29:53.966Z,947.91
2023-01-11T04:30:53.878Z,947.86
2023-01-11T04:31:53.915Z,947.85
2023-01-11T04:32:53.836Z,947.82
2023-01-11T04:33:53.848Z,947.76
2023-01-11T04:34:53.814Z,947.81
2023-01-11T04:35:53.820Z,947.81
2023-01-11T04:36:53.814Z,947.77
2023-01-11T04:37:53.777Z,947.75
2023-01-11T04:38:53.788Z,947.77
2023-01-11T04:39:53.755Z,947.70
2023-01-11T04:40:53.758Z,947.70
2023-01-11T04:41:53.728Z,947.65
2023-01-11T04:42:53.744Z,947.68
2023-01-11T04:43:53.821Z,947.62
2023-01-11T04:44:53.702Z,947.61
2023-01-11T04:45:53.732Z,947.61
2023-01-11T04:46:53.676Z,947.57
2023-01-11T04:47:53.660Z,947.61
2023-01-11T04:48:53.659Z,947.59
2023-01-11T04:49:53.704Z,947.60
2023-01-11T04:50:53.638Z,947.62
2023-01-11T04:51:53.628Z,947.65
2023-01-11T04:52:53.614Z,947.62
2023-01-11T04:53:53.602Z,947.71
2023-01-11T04:54:53.600Z,947.63
2023-01-11T04:55:53.581Z,947.63
2023-01-11T04:56:53.570Z,947.69
2023-01-11T04:57:53.554Z,947.71
2023-01-11T04:58:53.533Z,947.74
2023-01-11T04:59:53.558Z,947.77
2023-01-11T05:00:53.642Z,947.73
2023-01-11T05:01:53.500Z,947.68
2023-01-11T05:02:53.498Z,947.73
2023-01-11T05:03:53.549Z,947.75
2023-01-11T05:04:53.489Z,947.72
2023-01-11T05:05:53.457Z,947.71
2023-01-11T05:06:53.505Z,947.73
2023-01-11T05:07:53.456Z,947.70
2023-01-11T05:08:53.422Z,947.67
2023-01-11T05:09:53.448Z,947.66
2023-01-11T05:10:53.403Z,947.69
2023-01-11T05:11:53.391Z,947.69
2023-01-11T05:12:53.414Z,947.71
2023-01-11T05:13:53.371Z,947.71
2023-01-11T05:14:53.347Z,947.73
2023-01-11T05:15:53.353Z,947.74
2023-01-11T05:16:53.328Z,947.75
2023-01-11T05:17:53.328Z,947.76
2023-01-11T05:18:53.333Z,947.70
2023-01-11T05:19:53.315Z,947.72
2023-01-11T05:20:53.282Z,947.69
2023-01-11T05:21:53.309Z,947.77
2023-01-11T05:22:53.261Z,947.70
2023-01-11T05:23:53.253Z,947.73
2023-01-11T05:24:53.242Z,947.68
2023-01-11T05:25:53.235Z,947.75
2023-01-11T05:26:53.244Z,947.71
2023-01-11T05:27:53.208Z,947.71
2023-01-11T05:28:53.214Z,947.67
2023-01-11T05:29:53.206Z,947.60
2023-01-11T05:30:53.188Z,947.67
2023-01-11T05:31:53.256Z,947.64
2023-01-11T05:32:53.142Z,947.57
2023-01-11T05:33:53.137Z,947.58
2023-01-11T05:34:54.070Z,947.57
2023-01-11T05:35:54.505Z,947.52
2023-01-11T05:36:53.123Z,947.54
2023-01-11T05:37:53.097Z,947.60
2023-01-11T05:38:53.080Z,947.55
2023-01-11T05:39:53.087Z,947.54
2023-01-11T05:40:53.049Z,947.54
2023-01-11T05:41:53.061Z,947.52
2023-01-11T05:42:53.069Z,947.50
2023-01-11T05:43:53.024Z,947.55
2023-01-11T05:44:53.020Z,947.53
2023-01-11T05:45:53.065Z,947.51
2023-01-11T05:46:52.984Z,947.56
2023-01-11T05:47:52.974Z,947.55
2023-01-11T05:48:52.963Z,947.61
2023-01-11T05:49:52.964Z,947.61
2023-01-11T05:50:52.960Z,947.62
2023-01-11T05:51:52.935Z,947.62
2023-01-11T05:52:52.928Z,947.65
2023-01-11T05:53:52.915Z,947.71
2023-01-11T05:54:52.893Z,947.66
2023-01-11T05:55:52.905Z,947.68
2023-01-11T05:56:52.874Z,947.64
2023-01-11T05:57:52.867Z,947.69
2023-01-11T05:58:52.857Z,947.72
2023-01-11T05:59:53.057Z,947.72
2023-01-11T06:00:52.882Z,947.74
2023-01-11T06:01:52.839Z,947.71
2023-01-11T06:02:52.927Z,947.76
2023-01-11T06:03:52.795Z,947.73
2023-01-11T06:04:54.924Z,947.77
2023-01-11T06:05:52.803Z,947.71
2023-01-11T06:06:52.853Z,947.75
2023-01-11T06:07:52.751Z,947.69
2023-01-11T06:08:52.742Z,947.74
2023-01-11T06:09:52.734Z,947.78
2023-01-11T06:10:52.738Z,947.79
2023-01-11T06:11:52.727Z,947.77
2023-01-11T06:12:52.697Z,947.77
2023-01-11T06:13:52.693Z,947.71
2023-01-11T06:14:52.666Z,947.71
2023-01-11T06:15:52.691Z,947.70
2023-01-11T06:16:52.730Z,947.69
2023-01-11T06:17:52.661Z,947.72
2023-01-11T06:18:52.629Z,947.65
2023-01-11T06:19:52.622Z,947.61
2023-01-11T06:20:52.621Z,947.63
2023-01-11T06:21:52.616Z,947.61
2023-01-11T06:22:52.577Z,947.63
2023-01-11T06:23:52.599Z,947.55
2023-01-11T06:24:52.555Z,947.56
2023-01-11T06:25:52.553Z,947.53
2023-01-11T06:26:52.548Z,947.49
2023-01-11T06:27:52.546Z,947.54
2023-01-11T06:28:52.522Z,947.51
2023-01-11T06:29:52.520Z,947.48
2023-01-11T06:30:52.543Z,947.47
2023-01-11T06:31:52.515Z,947.47
2023-01-11T06:32:52.498Z,947.54
2023-01-11T06:33:52.470Z,947.51
2023-01-11T06:34:52.448Z,947.51
2023-01-11T06:35:52.441Z,947.47
2023-01-11T06:36:52.453Z,947.47
2023-01-11T06:37:52.418Z,947.47
2023-01-11T06:38:52.419Z,947.56
2023-01-11T06:39:52.392Z,947.51
2023-01-11T06:40:52.396Z,947.57
2023-01-11T06:41:52.390Z,947.61
2023-01-11T06:42:52.355Z,947.59
2023-01-11T06:43:52.355Z,947.59
2023-01-11T06:44:52.336Z,947.64
2023-01-11T06:45:52.386Z,947.62
2023-01-11T06:46:52.314Z,947.66
2023-01-11T06:47:52.310Z,947.69
2023-01-11T06:48:52.309Z,947.72
2023-01-11T06:49:52.298Z,947.70
2023-01-11T06:50:52.313Z,947.75
2023-01-11T06:51:52.293Z,947.68
2023-01-11T06:52:52.252Z,947.66
2023-01-11T06:53:52.238Z,947.72
2023-01-11T06:54:52.222Z,947.68
2023-01-11T06:55:52.232Z,947.72
2023-01-11T06:56:52.227Z,947.71
2023-01-11T06:57:52.198Z,947.70
2023-01-11T06:58:52.205Z,947.73
2023-01-11T06:59:52.166Z,947.66
2023-01-11T07:00:52.318Z,947.66
2023-01-11T07:01:52.164Z,947.63
2023-01-11T07:02:52.128Z,947.60
2023-01-11T07:03:52.140Z,947.56
2023-01-11T07:04:52.179Z,947.54
2023-01-11T07:05:52.133Z,947.57
2023-01-11T07:06:53.058Z,947.53
2023-01-11T07:07:52.084Z,947.52
2023-01-11T07:08:52.096Z,947.54
2023-01-11T07:09:52.051Z,947.54
2023-01-11T07:10:52.080Z,947.54
2023-01-11T07:11:52.032Z,947.50
2023-01-11T07:12:52.016Z,947.45
2023-01-11T07:13:52.039Z,947.46
2023-01-11T07:14:51.998Z,947.48
2023-01-11T07:15:52.041Z,947.46
2023-01-11T07:16:51.992Z,947.44
2023-01-11T07:17:51.959Z,947.43
2023-01-11T07:18:51.975Z,947.48
2023-01-11T07:19:51.943Z,947.45
2023-01-11T07:20:51.946Z,947.50
2023-01-11T07:21:51.923Z,947.43
2023-01-11T07:22:51.925Z,947.42
2023-01-11T07:23:51.919Z,947.46
2023-01-11T07:24:51.889Z,947.42
2023-01-11T07:25:51.974Z,947.43
2023-01-11T07:26:51.877Z,947.34
2023-01-11T07:27:51.856Z,947.44
2023-01-11T07:28:51.880Z,947.46
2023-01-11T07:29:51.852Z,947.38
2023-01-11T07:30:58.851Z,947.33
2023-01-11T07:31:52.824Z,947.33
2023-01-11T07:32:51.788Z,947.33
2023-01-11T07:33:51.860Z,947.37
2023-01-11T07:34:51.767Z,947.35
2023-01-11T07:35:51.776Z,947.36
2023-01-11T07:36:52.109Z,947.41
2023-01-11T07:37:51.757Z,947.37
2023-01-11T07:38:51.727Z,947.48
2023-01-11T07:39:51.721Z,947.44
2023-01-11T07:40:51.728Z,947.44
2023-01-11T07:41:51.711Z,947.43
2023-01-11T07:42:51.735Z,947.45
2023-01-11T07:43:51.682Z,947.50
2023-01-11T07:44:51.673Z,947.43
2023-01-11T07:45:51.705Z,947.36
2023-01-11T07:46:51.800Z,947.40
2023-01-11T07:47:51.643Z,947.41
2023-01-11T07:48:51.619Z,947.40
2023-01-11T07:49:51.609Z,947.36
2023-01-11T07:50:51.608Z,947.34
2023-01-11T07:51:51.583Z,947.34
2023-01-11T07:52:51.582Z,947.31
2023-01-11T07:53:51.563Z,947.32
2023-01-11T07:54:51.555Z,947.31
2023-01-11T07:55:51.567Z,947.36
2023-01-11T07:56:51.551Z,947.31
2023-01-11T07:57:51.546Z,947.30
2023-01-11T07:58:51.515Z,947.30
2023-01-11T07:59:51.513Z,947.17
2023-01-11T08:00:51.576Z,947.26
2023-01-11T08:01:51.586Z,947.21
2023-01-11T08:02:51.659Z,947.25
2023-01-11T08:03:51.630Z,947.27
2023-01-11T08:04:51.493Z,947.24
2023-01-11T08:05:51.541Z,947.24
2023-01-11T08:06:51.513Z,947.29
2023-01-11T08:07:51.424Z,947.28
2023-01-11T08:08:51.463Z,947.23
2023-01-11T08:09:51.402Z,947.25
2023-01-11T08:10:51.388Z,947.20
2023-01-11T08:11:51.363Z,947.22
2023-01-11T08:12:51.682Z,947.23
2023-01-11T08:13:51.390Z,947.24
2023-01-11T08:14:51.339Z,947.16
2023-01-11T08:15:51.346Z,947.27
2023-01-11T08:16:51.403Z,947.26
2023-01-11T08:17:51.329Z,947.21
2023-01-11T08:18:51.317Z,947.08
2023-01-11T08:19:51.273Z,947.18
2023-01-11T08:20:51.261Z,947.15
2023-01-11T08:21:51.287Z,947.15
2023-01-11T08:22:52.128Z,947.12
2023-01-11T08:23:51.247Z,947.15
2023-01-11T08:24:51.226Z,947.07
2023-01-11T08:25:51.200Z,947.05
2023-01-11T08:26:51.243Z,947.01
2023-01-11T08:27:51.203Z,947.01
2023-01-11T08:28:51.163Z,946.94
2023-01-11T08:29:51.159Z,946.91
2023-01-11T08:30:51.202Z,947.03
2023-01-11T08:31:51.157Z,947.03
2023-01-11T08:32:51.119Z,947.04
2023-01-11T08:33:51.125Z,946.92
2023-01-11T08:34:51.097Z,946.95
2023-01-11T08:35:51.212Z,946.99
2023-01-11T08:36:51.091Z,946.95
2023-01-11T08:37:51.074Z,946.96
2023-01-11T08:38:51.044Z,947.07
2023-01-11T08:39:51.055Z,947.02
2023-01-11T08:40:52.732Z,947.02
2023-01-11T08:41:51.032Z,947.03
2023-01-11T08:42:51.013Z,946.96
2023-01-11T08:43:51.023Z,947.00
2023-01-11T08:44:50.980Z,947.02
2023-01-11T08:45:51.009Z,946.99
2023-01-11T08:46:52.537Z,947.02
2023-01-11T08:47:50.964Z,947.02
2023-01-11T08:48:51.823Z,947.04
2023-01-11T08:49:50.929Z,947.06
2023-01-11T08:50:50.912Z,947.11
2023-01-11T08:51:51.083Z,947.12
2023-01-11T08:52:51.325Z,947.11
2023-01-11T08:53:50.887Z,947.11
2023-01-11T08:54:50.871Z,947.11
2023-01-11T08:55:50.868Z,947.10
2023-01-11T08:56:50.951Z,947.13
2023-01-11T08:57:50.844Z,947.11
2023-01-11T08:58:50.841Z,947.10
2023-01-11T08:59:50.816Z,947.08
2023-01-11T09:00:50.834Z,947.09
2023-01-11T09:01:50.830Z,947.05
2023-01-11T09:02:50.866Z,947.01
2023-01-11T09:03:50.775Z,947.05
2023-01-11T09:04:50.753Z,947.07
2023-01-11T09:05:50.753Z,947.09
2023-01-11T09:06:50.754Z,947.09
2023-01-11T09:07:50.728Z,947.05
2023-01-11T09:08:50.710Z,947.05
2023-01-11T09:09:50.705Z,947.01
2023-01-11T09:10:50.690Z,947.03
2023-01-11T09:11:50.697Z,947.05
2023-01-11T09:12:50.987Z,947.04
2023-01-11T09:13:50.662Z,947.04
2023-01-11T09:14:50.652Z,947.08
2023-01-11T09:15:50.733Z,947.11
2023-01-11T09:16:50.641Z,947.15
2023-01-11T09:17:50.627Z,947.17
2023-01-11T09:18:50.609Z,947.20
2023-01-11T09:19:50.582Z,947.19
2023-01-11T09:20:50.585Z,947.20
2023-01-11T09:21:50.576Z,947.22
2023-01-11T09:22:52.710Z,947.17
2023-01-11T09:23:50.544Z,947.12
2023-01-11T09:24:50.545Z,947.13
2023-01-11T09:25:50.511Z,947.19
2023-01-11T09:26:50.551Z,947.24
2023-01-11T09:27:50.526Z,947.24
2023-01-11T09:28:50.554Z,947.24
2023-01-11T09:29:50.491Z,947.26
2023-01-11T09:30:50.462Z,947.28
2023-01-11T09:31:50.468Z,947.32
2023-01-11T09:32:50.447Z,947.32
2023-01-11T09:33:50.417Z,947.26
2023-01-11T09:34:50.409Z,947.30
2023-01-11T09:35:50.393Z,947.31
2023-01-11T09:36:50.410Z,947.31
2023-01-11T09:37:50.386Z,947.27
2023-01-11T09:38:50.367Z,947.28
2023-01-11T09:39:50.392Z,947.33
2023-01-11T09:40:50.370Z,947.31
2023-01-11T09:41:50.331Z,947.30
2023-01-11T09:42:50.327Z,947.30
2023-01-11T09:43:50.300Z,947.28
2023-01-11T09:44:50.329Z,947.19
2023-01-11T09:45:50.331Z,947.16
2023-01-11T09:46:50.302Z,947.19
2023-01-11T09:47:50.263Z,947.14
2023-01-11T09:48:50.254Z,947.13
2023-01-11T09:49:50.240Z,947.08
2023-01-11T09:50:50.325Z,947.05
2023-01-11T09:51:50.206Z,946.99
2023-01-11T09:52:50.284Z,947.06
2023-01-11T09:53:50.216Z,947.06
2023-01-11T09:54:50.177Z,947.05
2023-01-11T09:55:50.180Z,947.07
2023-01-11T09:56:50.187Z,947.03
2023-01-11T09:57:50.236Z,946.95
2023-01-11T09:58:50.145Z,946.98
2023-01-11T09:59:50.117Z,946.97
2023-01-11T10:00:50.253Z,946.92
2023-01-11T10:01:50.115Z,946.91
2023-01-11T10:02:50.085Z,946.88
2023-01-11T10:03:50.113Z,946.86
2023-01-11T10:04:50.213Z,946.84
2023-01-11T10:05:50.125Z,946.80
2023-01-11T10:06:50.147Z,946.76
2023-01-11T10:07:50.037Z,946.79
2023-01-11T10:18:23.802Z,946.77
2023-01-11T10:18:26.736Z,946.77
2023-01-11T10:18:28.361Z,946.77
2023-01-11T10:18:32.894Z,946.77
2023-01-11T10:19:18.574Z,946.82
2023-01-11T10:19:50.923Z,946.78
2023-01-11T10:20:49.880Z,946.75
2023-01-11T10:21:49.867Z,946.76
2023-01-11T10:22:49.883Z,946.76
2023-01-11T10:23:49.847Z,946.79
2023-01-11T10:24:49.851Z,946.73
2023-01-11T10:25:49.820Z,946.75
2023-01-11T10:26:49.841Z,946.68
2023-01-11T10:27:49.794Z,946.71
2023-01-11T10:28:49.788Z,946.69
2023-01-11T10:29:49.839Z,946.68
2023-01-11T10:30:49.773Z,946.64
2023-01-11T10:31:49.760Z,946.58
2023-01-11T10:32:49.761Z,946.61
2023-01-11T10:33:49.753Z,946.57
2023-01-11T10:34:49.716Z,946.55
2023-01-11T10:35:49.728Z,946.59
2023-01-11T10:36:49.699Z,946.60
2023-01-11T10:37:49.696Z,946.57
2023-01-11T10:38:49.674Z,946.53
2023-01-11T10:39:49.691Z,946.55
2023-01-11T10:40:49.652Z,946.55
2023-01-11T10:41:49.640Z,946.56
2023-01-11T10:42:49.629Z,946.49
2023-01-11T10:43:49.638Z,946.51
2023-01-11T10:44:49.612Z,946.48
2023-01-11T10:45:49.657Z,946.51
2023-01-11T10:46:49.590Z,946.45
2023-01-11T10:47:49.592Z,946.43
2023-01-11T10:48:49.583Z,946.42
2023-01-11T10:49:49.567Z,946.43
2023-01-11T10:50:49.535Z,946.45
2023-01-11T10:51:49.547Z,946.39
2023-01-11T10:52:49.513Z,946.45
2023-01-11T10:53:49.546Z,946.44
2023-01-11T10:54:50.234Z,946.46
2023-01-11T10:55:49.472Z,946.46
2023-01-11T10:57:01.672Z,946.37
2023-01-11T10:57:59.765Z,946.51
2023-01-11T10:58:50.463Z,946.38
2023-01-11T10:59:49.419Z,946.35
2023-01-11T11:00:49.435Z,946.37
2023-01-11T11:01:49.464Z,946.37
2023-01-11T11:02:49.426Z,946.37
2023-01-11T11:03:49.387Z,946.37
2023-01-11T11:04:49.395Z,946.38
2023-01-11T11:05:49.363Z,946.35
2023-01-11T11:06:49.351Z,946.37
2023-01-11T11:07:49.358Z,946.35
2023-01-11T11:08:49.354Z,946.33
2023-01-11T11:09:49.314Z,946.35
2023-01-11T11:10:49.304Z,946.32
2023-01-11T11:11:49.296Z,946.28
2023-01-11T11:12:49.283Z,946.30
2023-01-11T11:13:49.291Z,946.26
2023-01-11T11:14:49.279Z,946.24
2023-01-11T11:15:49.244Z,946.17
2023-01-11T11:16:49.234Z,946.16
2023-01-11T11:17:49.241Z,946.23
2023-01-11T11:18:49.239Z,946.21
2023-01-11T11:19:49.205Z,946.07
2023-01-11T11:20:49.243Z,946.15
2023-01-11T11:21:49.177Z,946.14
2023-01-11T11:22:49.166Z,946.06
2023-01-11T11:23:49.206Z,946.08
2023-01-11T11:24:49.168Z,946.08
2023-01-11T11:25:49.147Z,945.97
2023-01-11T11:26:49.138Z,946.07
2023-01-11T11:27:49.111Z,946.01
2023-01-11T11:28:49.093Z,946.00
2023-01-11T11:29:49.108Z,945.98
2023-01-11T11:30:49.083Z,946.08
2023-01-11T11:31:49.150Z,946.04
2023-01-11T11:32:49.097Z,946.07
2023-01-11T11:33:49.034Z,946.00
2023-01-11T11:34:49.030Z,945.98
2023-01-11T11:35:49.032Z,946.00
2023-01-11T11:36:49.048Z,945.97
2023-01-11T11:37:48.994Z,946.01
2023-01-11T11:38:49.001Z,946.00
2023-01-11T11:39:48.974Z,945.98
2023-01-11T11:40:48.962Z,945.99
2023-01-11T11:41:48.948Z,945.98
2023-01-11T11:42:48.943Z,945.96
2023-01-11T11:43:48.948Z,945.95
2023-01-11T11:44:48.926Z,945.90
2023-01-11T11:45:49.003Z,945.92
2023-01-11T11:46:48.893Z,945.95
2023-01-11T11:47:48.875Z,945.95
2023-01-11T11:48:48.995Z,945.91
2023-01-11T11:49:48.862Z,945.92
2023-01-11T11:50:48.864Z,945.90
2023-01-11T11:51:48.829Z,945.90
2023-01-11T11:52:48.852Z,945.89
2023-01-11T11:53:48.828Z,945.84
2023-01-11T11:54:48.803Z,945.84
2023-01-11T11:55:48.791Z,945.84
2023-01-11T11:56:48.777Z,945.89
2023-01-11T11:57:48.786Z,945.81
2023-01-11T11:58:48.755Z,945.89
2023-01-11T11:59:48.773Z,945.87
2023-01-11T12:00:48.743Z,945.83
2023-01-11T12:01:48.770Z,945.81
2023-01-11T12:02:48.706Z,945.83
2023-01-11T12:03:48.690Z,945.83
2023-01-11T12:04:48.772Z,945.89
2023-01-11T12:05:48.673Z,945.83
2023-01-11T12:06:49.410Z,945.82
2023-01-11T12:07:55.702Z,945.80
2023-01-11T12:08:49.668Z,945.77
2023-01-11T12:09:48.619Z,945.83
2023-01-11T12:10:48.639Z,945.79
2023-01-11T12:11:48.600Z,945.73
2023-01-11T12:12:48.598Z,945.77
2023-01-11T12:13:48.579Z,945.78
2023-01-11T12:14:48.614Z,945.69
2023-01-11T12:15:48.554Z,945.70
2023-01-11T12:16:48.587Z,945.64
2023-01-11T12:17:48.538Z,945.62
2023-01-11T12:18:48.689Z,945.64
2023-01-11T12:19:48.511Z,945.65
2023-01-11T12:20:48.536Z,945.61
2023-01-11T12:21:48.514Z,945.59
2023-01-11T12:22:48.499Z,945.58
2023-01-11T12:23:48.482Z,945.59
2023-01-11T12:24:48.482Z,945.53
2023-01-11T12:25:48.436Z,945.58
2023-01-11T12:26:48.626Z,945.55
2023-01-11T12:27:48.440Z,945.56
2023-01-11T12:28:48.418Z,945.54
2023-01-11T12:29:48.395Z,945.51
2023-01-11T12:30:48.412Z,945.56
2023-01-11T12:31:48.376Z,945.55
2023-01-11T12:32:48.398Z,945.59
2023-01-11T12:33:48.355Z,945.53
2023-01-11T12:34:48.342Z,945.56